sensor_id;sensor_type;location;lat;lon;timestamp;pressure;altitude;pressure_sealevel;temperature;humidity
79250;BME280;68679;51.030;7.584;2023-08-20T00:00:58;99446.16;;;20.70;65.67
79250;BME280;68679;51.030;7.584;2023-08-20T00:03:24;99451.50;;;20.70;65.68
79250;BME280;68679;51.030;7.584;2023-08-20T00:05:50;99451.50;;;20.70;65.56
79250;BME280;68679;51.030;7.584;2023-08-20T00:08:15;99448.06;;;20.69;65.54
79250;BME280;68679;51.030;7.584;2023-08-20T00:10:41;99447.94;;;20.66;65.77
79250;BME280;68679;51.030;7.584;2023-08-20T00:13:06;99441.81;;;20.65;65.53
79250;BME280;68679;51.030;7.584;2023-08-20T00:15:31;99438.72;;;20.63;65.88
79250;BME280;68679;51.030;7.584;2023-08-20T00:17:57;99439.00;;;20.61;65.66
79250;BME280;68679;51.030;7.584;2023-08-20T00:20:23;99439.34;;;20.60;65.62
79250;BME280;68679;51.030;7.584;2023-08-20T00:22:49;99437.66;;;20.55;65.57
79250;BME280;68679;51.030;7.584;2023-08-20T00:25:16;99444.09;;;20.54;65.40
79250;BME280;68679;51.030;7.584;2023-08-20T00:27:42;99447.44;;;20.51;65.79
79250;BME280;68679;51.030;7.584;2023-08-20T00:30:08;99447.72;;;20.50;65.66
79250;BME280;68679;51.030;7.584;2023-08-20T00:32:33;99454.66;;;20.51;65.43
79250;BME280;68679;51.030;7.584;2023-08-20T00:34:59;99447.94;;;20.45;65.79
79250;BME280;68679;51.030;7.584;2023-08-20T00:37:25;99453.13;;;20.41;65.44
79250;BME280;68679;51.030;7.584;2023-08-20T00:39:50;99451.56;;;20.40;65.62
79250;BME280;68679;51.030;7.584;2023-08-20T00:42:15;99449.53;;;20.37;65.63
79250;BME280;68679;51.030;7.584;2023-08-20T00:44:41;99460.06;;;20.33;65.47
79250;BME280;68679;51.030;7.584;2023-08-20T00:47:09;99461.81;;;20.29;65.43
79250;BME280;68679;51.030;7.584;2023-08-20T00:49:35;99457.59;;;20.28;65.63
79250;BME280;68679;51.030;7.584;2023-08-20T00:52:02;99462.50;;;20.26;65.76
79250;BME280;68679;51.030;7.584;2023-08-20T00:54:28;99460.47;;;20.23;65.41
79250;BME280;68679;51.030;7.584;2023-08-20T00:56:54;99458.91;;;20.22;65.73
79250;BME280;68679;51.030;7.584;2023-08-20T00:59:20;99450.78;;;20.19;65.71
79250;BME280;68679;51.030;7.584;2023-08-20T01:01:46;99450.00;;;20.18;65.86
79250;BME280;68679;51.030;7.584;2023-08-20T01:04:11;99457.53;;;20.16;65.59
79250;BME280;68679;51.030;7.584;2023-08-20T01:06:51;99455.50;;;20.13;65.41
79250;BME280;68679;51.030;7.584;2023-08-20T01:12:03;99454.13;;;20.07;65.82
79250;BME280;68679;51.030;7.584;2023-08-20T01:14:29;99467.63;;;20.02;65.78
79250;BME280;68679;51.030;7.584;2023-08-20T01:16:54;99464.97;;;20.02;65.78
79250;BME280;68679;51.030;7.584;2023-08-20T01:19:21;99459.19;;;20.00;65.74
79250;BME280;68679;51.030;7.584;2023-08-20T01:22:12;99452.94;;;19.96;65.70
79250;BME280;68679;51.030;7.584;2023-08-20T01:24:47;99445.28;;;19.94;66.04
79250;BME280;68679;51.030;7.584;2023-08-20T01:27:56;99444.50;;;19.94;65.76
79250;BME280;68679;51.030;7.584;2023-08-20T01:30:23;99450.81;;;19.89;65.62
79250;BME280;68679;51.030;7.584;2023-08-20T01:32:50;99444.88;;;19.83;65.56
79250;BME280;68679;51.030;7.584;2023-08-20T01:35:17;99445.22;;;19.82;65.76
79250;BME280;68679;51.030;7.584;2023-08-20T01:37:43;99427.53;;;19.77;65.70
79250;BME280;68679;51.030;7.584;2023-08-20T01:40:09;99436.31;;;19.78;65.59
79250;BME280;68679;51.030;7.584;2023-08-20T01:42:37;99434.28;;;19.75;65.76
79250;BME280;68679;51.030;7.584;2023-08-20T01:45:04;99431.19;;;19.73;65.88
79250;BME280;68679;51.030;7.584;2023-08-20T01:47:30;99427.28;;;19.70;66.08
79250;BME280;68679;51.030;7.584;2023-08-20T01:49:55;99419.63;;;19.69;65.79
79250;BME280;68679;51.030;7.584;2023-08-20T01:52:20;99419.94;;;19.67;65.90
79250;BME280;68679;51.030;7.584;2023-08-20T01:54:46;99420.56;;;19.64;65.64
79250;BME280;68679;51.030;7.584;2023-08-20T01:57:11;99416.53;;;19.58;66.02
79250;BME280;68679;51.030;7.584;2023-08-20T01:59:36;99421.38;;;19.56;65.86
79250;BME280;68679;51.030;7.584;2023-08-20T02:02:01;99431.09;;;19.52;65.67
79250;BME280;68679;51.030;7.584;2023-08-20T02:04:27;99431.25;;;19.47;66.06
79250;BME280;68679;51.030;7.584;2023-08-20T02:06:52;99428.31;;;19.48;65.88
79250;BME280;68679;51.030;7.584;2023-08-20T02:09:18;99427.81;;;19.46;65.64
79250;BME280;68679;51.030;7.584;2023-08-20T02:11:45;99430.03;;;19.44;65.99
79250;BME280;68679;51.030;7.584;2023-08-20T02:14:10;99422.69;;;19.41;65.80
79250;BME280;68679;51.030;7.584;2023-08-20T02:16:35;99423.47;;;19.42;65.88
79250;BME280;68679;51.030;7.584;2023-08-20T02:19:01;99427.53;;;19.39;65.83
79250;BME280;68679;51.030;7.584;2023-08-20T02:21:28;99429.16;;;19.32;66.03
79250;BME280;68679;51.030;7.584;2023-08-20T02:23:53;99429.94;;;19.32;65.84
79250;BME280;68679;51.030;7.584;2023-08-20T02:26:18;99436.97;;;19.28;66.04
79250;BME280;68679;51.030;7.584;2023-08-20T02:28:44;99441.50;;;19.27;66.01
79250;BME280;68679;51.030;7.584;2023-08-20T02:31:09;99447.47;;;19.24;66.06
79250;BME280;68679;51.030;7.584;2023-08-20T02:33:34;99438.25;;;19.22;65.58
79250;BME280;68679;51.030;7.584;2023-08-20T02:36:03;99441.56;;;19.19;66.04
79250;BME280;68679;51.030;7.584;2023-08-20T02:38:29;99443.72;;;19.17;65.75
79250;BME280;68679;51.030;7.584;2023-08-20T02:40:55;99441.06;;;19.17;65.75
79250;BME280;68679;51.030;7.584;2023-08-20T02:43:20;99448.59;;;19.15;65.93
79250;BME280;68679;51.030;7.584;2023-08-20T02:45:45;99448.13;;;19.13;65.92
79250;BME280;68679;51.030;7.584;2023-08-20T02:48:11;99452.50;;;19.09;65.82
79250;BME280;68679;51.030;7.584;2023-08-20T02:50:36;99449.41;;;19.07;66.07
79250;BME280;68679;51.030;7.584;2023-08-20T02:53:01;99451.28;;;19.06;66.30
79250;BME280;68679;51.030;7.584;2023-08-20T02:55:28;99450.81;;;19.04;66.38
79250;BME280;68679;51.030;7.584;2023-08-20T02:57:53;99454.25;;;19.05;66.14
79250;BME280;68679;51.030;7.584;2023-08-20T03:00:19;99456.13;;;19.04;66.39
79250;BME280;68679;51.030;7.584;2023-08-20T03:02:44;99454.88;;;19.01;66.29
79250;BME280;68679;51.030;7.584;2023-08-20T03:05:09;99454.09;;;19.01;66.26
79250;BME280;68679;51.030;7.584;2023-08-20T03:07:35;99454.44;;;18.99;66.42
79250;BME280;68679;51.030;7.584;2023-08-20T03:10:00;99459.25;;;18.97;66.51
79250;BME280;68679;51.030;7.584;2023-08-20T03:12:25;99455.81;;;18.97;66.39
79250;BME280;68679;51.030;7.584;2023-08-20T03:14:51;99469.28;;;18.92;66.42
79250;BME280;68679;51.030;7.584;2023-08-20T03:17:16;99473.19;;;18.94;66.80
79250;BME280;68679;51.030;7.584;2023-08-20T03:19:57;99472.09;;;18.95;66.08
79250;BME280;68679;51.030;7.584;2023-08-20T03:22:23;99474.75;;;18.87;66.47
79250;BME280;68679;51.030;7.584;2023-08-20T03:24:49;99476.47;;;18.91;66.41
79250;BME280;68679;51.030;7.584;2023-08-20T03:27:15;99474.47;;;18.88;66.64
79250;BME280;68679;51.030;7.584;2023-08-20T03:29:41;99473.97;;;18.86;66.20
79250;BME280;68679;51.030;7.584;2023-08-20T03:32:06;99474.28;;;18.85;66.45
79250;BME280;68679;51.030;7.584;2023-08-20T03:34:31;99487.25;;;18.86;66.50
79250;BME280;68679;51.030;7.584;2023-08-20T03:36:56;99476.16;;;18.84;66.82
79250;BME280;68679;51.030;7.584;2023-08-20T03:39:22;99461.00;;;18.85;66.48
79250;BME280;68679;51.030;7.584;2023-08-20T03:41:47;99471.31;;;18.86;66.50
79250;BME280;68679;51.030;7.584;2023-08-20T03:44:12;99467.75;;;18.82;66.61
79250;BME280;68679;51.030;7.584;2023-08-20T03:46:38;99471.97;;;18.83;66.80
79250;BME280;68679;51.030;7.584;2023-08-20T03:49:03;99481.63;;;18.79;66.47
79250;BME280;68679;51.030;7.584;2023-08-20T03:51:28;99489.63;;;18.79;66.51
79250;BME280;68679;51.030;7.584;2023-08-20T03:53:53;99479.63;;;18.76;66.90
79250;BME280;68679;51.030;7.584;2023-08-20T03:56:19;99481.63;;;18.79;66.68
79250;BME280;68679;51.030;7.584;2023-08-20T03:58:45;99481.63;;;18.79;66.77
79250;BME280;68679;51.030;7.584;2023-08-20T04:01:10;99482.75;;;18.78;67.25
79250;BME280;68679;51.030;7.584;2023-08-20T04:03:35;99480.88;;;18.79;66.89
79250;BME280;68679;51.030;7.584;2023-08-20T04:06:00;99487.72;;;18.80;67.05
79250;BME280;68679;51.030;7.584;2023-08-20T04:08:26;99475.88;;;18.77;67.16
79250;BME280;68679;51.030;7.584;2023-08-20T04:10:51;99475.53;;;18.79;67.16
79250;BME280;68679;51.030;7.584;2023-08-20T04:13:17;99488.38;;;18.77;66.97
79250;BME280;68679;51.030;7.584;2023-08-20T04:15:42;99498.22;;;18.76;67.31
79250;BME280;68679;51.030;7.584;2023-08-20T04:18:08;99500.88;;;18.76;67.22
79250;BME280;68679;51.030;7.584;2023-08-20T04:20:33;99504.16;;;18.73;67.24
79250;BME280;68679;51.030;7.584;2023-08-20T04:22:59;99499.94;;;18.72;67.20
79250;BME280;68679;51.030;7.584;2023-08-20T04:25:24;99505.88;;;18.69;67.12
79250;BME280;68679;51.030;7.584;2023-08-20T04:27:49;99497.91;;;18.69;67.35
79250;BME280;68679;51.030;7.584;2023-08-20T04:30:14;99503.53;;;18.67;67.24
79250;BME280;68679;51.030;7.584;2023-08-20T04:32:40;99503.53;;;18.67;66.93
79250;BME280;68679;51.030;7.584;2023-08-20T04:35:05;99506.78;;;18.64;67.48
79250;BME280;68679;51.030;7.584;2023-08-20T04:37:31;99516.31;;;18.65;66.92
79250;BME280;68679;51.030;7.584;2023-08-20T04:39:56;99516.47;;;18.60;66.88
79250;BME280;68679;51.030;7.584;2023-08-20T04:42:21;99514.91;;;18.59;66.92
79250;BME280;68679;51.030;7.584;2023-08-20T04:44:47;99525.84;;;18.58;67.39
79250;BME280;68679;51.030;7.584;2023-08-20T04:47:12;99526.13;;;18.56;67.33
79250;BME280;68679;51.030;7.584;2023-08-20T04:49:38;99532.25;;;18.57;67.26
79250;BME280;68679;51.030;7.584;2023-08-20T04:52:03;99530.06;;;18.59;67.40
79250;BME280;68679;51.030;7.584;2023-08-20T04:54:29;99527.72;;;18.57;67.24
79250;BME280;68679;51.030;7.584;2023-08-20T04:56:54;99536.94;;;18.60;67.64
79250;BME280;68679;51.030;7.584;2023-08-20T04:59:19;99539.59;;;18.60;67.42
79250;BME280;68679;51.030;7.584;2023-08-20T05:01:44;99536.94;;;18.60;67.63
79250;BME280;68679;51.030;7.584;2023-08-20T05:04:10;99529.28;;;18.58;67.35
79250;BME280;68679;51.030;7.584;2023-08-20T05:06:35;99531.00;;;18.63;67.46
79250;BME280;68679;51.030;7.584;2023-08-20T05:09:00;99533.50;;;18.59;67.58
79250;BME280;68679;51.030;7.584;2023-08-20T05:11:26;99533.50;;;18.59;67.57
79250;BME280;68679;51.030;7.584;2023-08-20T05:13:51;99531.31;;;18.61;67.54
79250;BME280;68679;51.030;7.584;2023-08-20T05:16:16;99538.50;;;18.61;67.19
79250;BME280;68679;51.030;7.584;2023-08-20T05:18:43;99551.94;;;18.64;67.49
79250;BME280;68679;51.030;7.584;2023-08-20T05:21:08;99552.09;;;18.59;67.47
79250;BME280;68679;51.030;7.584;2023-08-20T05:23:36;99549.91;;;18.61;67.30
79250;BME280;68679;51.030;7.584;2023-08-20T05:26:01;99549.13;;;18.61;67.37
79250;BME280;68679;51.030;7.584;2023-08-20T05:28:27;99544.59;;;18.61;67.45
79250;BME280;68679;51.030;7.584;2023-08-20T05:30:55;99542.41;;;18.63;67.85
79250;BME280;68679;51.030;7.584;2023-08-20T05:33:21;99526.16;;;18.65;67.91
79250;BME280;68679;51.030;7.584;2023-08-20T05:35:46;99527.72;;;18.66;68.36
79250;BME280;68679;51.030;7.584;2023-08-20T05:38:11;99537.28;;;18.67;67.96
79250;BME280;68679;51.030;7.584;2023-08-20T05:40:37;99544.16;;;18.68;67.82
79250;BME280;68679;51.030;7.584;2023-08-20T05:43:03;99540.44;;;18.69;67.61
79250;BME280;68679;51.030;7.584;2023-08-20T05:45:28;99538.69;;;18.73;68.17
79250;BME280;68679;51.030;7.584;2023-08-20T05:47:53;99528.84;;;18.73;68.18
79250;BME280;68679;51.030;7.584;2023-08-20T05:50:18;99536.53;;;18.75;67.72
79250;BME280;68679;51.030;7.584;2023-08-20T05:52:44;99529.47;;;18.79;67.93
79250;BME280;68679;51.030;7.584;2023-08-20T05:55:09;99534.94;;;18.83;67.93
79250;BME280;68679;51.030;7.584;2023-08-20T05:57:35;99536.50;;;18.84;68.46
79250;BME280;68679;51.030;7.584;2023-08-20T06:00:03;99543.06;;;18.86;68.57
79250;BME280;68679;51.030;7.584;2023-08-20T06:02:29;99537.13;;;18.89;68.40
79250;BME280;68679;51.030;7.584;2023-08-20T06:04:54;99537.91;;;18.90;68.23
79250;BME280;68679;51.030;7.584;2023-08-20T06:07:20;99540.41;;;18.95;68.30
79250;BME280;68679;51.030;7.584;2023-08-20T06:09:46;99531.81;;;18.98;68.46
79250;BME280;68679;51.030;7.584;2023-08-20T06:12:11;99534.47;;;18.98;68.61
79250;BME280;68679;51.030;7.584;2023-08-20T06:14:36;99532.59;;;18.98;68.81
79250;BME280;68679;51.030;7.584;2023-08-20T06:17:02;99535.72;;;19.00;68.30
79250;BME280;68679;51.030;7.584;2023-08-20T06:19:27;99536.19;;;19.02;68.38
79250;BME280;68679;51.030;7.584;2023-08-20T06:21:53;99533.84;;;19.01;68.89
79250;BME280;68679;51.030;7.584;2023-08-20T06:24:18;99536.97;;;19.03;68.66
79250;BME280;68679;51.030;7.584;2023-08-20T06:26:43;99543.22;;;19.07;68.73
79250;BME280;68679;51.030;7.584;2023-08-20T06:29:10;99543.34;;;19.11;68.07
79250;BME280;68679;51.030;7.584;2023-08-20T06:31:35;99540.09;;;19.14;68.47
79250;BME280;68679;51.030;7.584;2023-08-20T06:34:00;99541.63;;;19.15;68.67
79250;BME280;68679;51.030;7.584;2023-08-20T06:36:26;99539.44;;;19.17;68.62
79250;BME280;68679;51.030;7.584;2023-08-20T06:38:51;99538.38;;;19.18;68.81
79250;BME280;68679;51.030;7.584;2023-08-20T06:41:17;99537.72;;;19.21;68.93
79250;BME280;68679;51.030;7.584;2023-08-20T06:43:43;99539.13;;;19.27;68.78
79250;BME280;68679;51.030;7.584;2023-08-20T06:46:08;99537.06;;;19.33;68.52
79250;BME280;68679;51.030;7.584;2023-08-20T06:48:34;99543.00;;;19.38;68.63
79250;BME280;68679;51.030;7.584;2023-08-20T06:51:08;99538.75;;;19.46;68.72
79250;BME280;68679;51.030;7.584;2023-08-20T06:53:33;99531.72;;;19.50;68.91
79250;BME280;68679;51.030;7.584;2023-08-20T06:55:58;99532.66;;;19.54;68.73
79250;BME280;68679;51.030;7.584;2023-08-20T06:58:24;99536.25;;;19.58;68.07
79250;BME280;68679;51.030;7.584;2023-08-20T07:00:49;99536.41;;;19.62;67.88
79250;BME280;68679;51.030;7.584;2023-08-20T07:03:14;99541.06;;;19.65;67.89
79250;BME280;68679;51.030;7.584;2023-08-20T07:05:39;99539.34;;;19.69;67.74
79250;BME280;68679;51.030;7.584;2023-08-20T07:08:05;99536.84;;;19.72;68.12
79250;BME280;68679;51.030;7.584;2023-08-20T07:10:30;99547.28;;;19.77;68.07
79250;BME280;68679;51.030;7.584;2023-08-20T07:12:55;99543.22;;;19.80;68.16
79250;BME280;68679;51.030;7.584;2023-08-20T07:15:20;99554.00;;;19.83;68.56
79250;BME280;68679;51.030;7.584;2023-08-20T07:17:46;99546.50;;;19.86;68.62
79250;BME280;68679;51.030;7.584;2023-08-20T07:20:11;99551.16;;;19.89;68.55
79250;BME280;68679;51.030;7.584;2023-08-20T07:22:36;99540.66;;;19.92;68.00
79250;BME280;68679;51.030;7.584;2023-08-20T07:25:02;99548.78;;;19.96;67.96
79250;BME280;68679;51.030;7.584;2023-08-20T07:27:27;99543.59;;;19.99;67.80
79250;BME280;68679;51.030;7.584;2023-08-20T07:29:53;99541.41;;;20.01;68.21
79250;BME280;68679;51.030;7.584;2023-08-20T07:32:18;99536.22;;;20.05;68.14
79250;BME280;68679;51.030;7.584;2023-08-20T07:34:43;99540.88;;;20.08;67.94
79250;BME280;68679;51.030;7.584;2023-08-20T07:37:08;99547.16;;;20.12;67.53
79250;BME280;68679;51.030;7.584;2023-08-20T07:39:34;99543.06;;;20.15;67.95
79250;BME280;68679;51.030;7.584;2023-08-20T07:41:59;99546.97;;;20.17;67.82
79250;BME280;68679;51.030;7.584;2023-08-20T07:44:25;99549.78;;;20.21;67.46
79250;BME280;68679;51.030;7.584;2023-08-20T07:46:53;99551.00;;;20.23;67.67
79250;BME280;68679;51.030;7.584;2023-08-20T07:49:19;99548.16;;;20.28;67.94
79250;BME280;68679;51.030;7.584;2023-08-20T07:51:44;99545.63;;;20.32;68.06
79250;BME280;68679;51.030;7.584;2023-08-20T07:54:09;99552.97;;;20.35;68.29
79250;BME280;68679;51.030;7.584;2023-08-20T07:56:35;99551.22;;;20.39;68.38
79250;BME280;68679;51.030;7.584;2023-08-20T07:59:00;99547.91;;;20.42;68.56
79250;BME280;68679;51.030;7.584;2023-08-20T08:01:25;99554.97;;;20.47;68.31
79250;BME280;68679;51.030;7.584;2023-08-20T08:03:53;99555.41;;;20.49;68.80
79250;BME280;68679;51.030;7.584;2023-08-20T08:06:18;99548.34;;;20.53;69.34
79250;BME280;68679;51.030;7.584;2023-08-20T08:08:45;99551.47;;;20.55;68.67
79250;BME280;68679;51.030;7.584;2023-08-20T08:11:10;99550.34;;;20.56;69.12
79250;BME280;68679;51.030;7.584;2023-08-20T08:13:35;99550.16;;;20.61;68.73
79250;BME280;68679;51.030;7.584;2023-08-20T08:16:01;99553.75;;;20.65;68.60
79250;BME280;68679;51.030;7.584;2023-08-20T08:18:26;99560.00;;;20.69;68.08
79250;BME280;68679;51.030;7.584;2023-08-20T08:20:51;99562.44;;;20.74;68.43
79250;BME280;68679;51.030;7.584;2023-08-20T08:23:16;99557.25;;;20.78;68.25
79250;BME280;68679;51.030;7.584;2023-08-20T08:25:42;99557.41;;;20.81;68.03
79250;BME280;68679;51.030;7.584;2023-08-20T08:28:07;99559.84;;;20.86;67.77
79250;BME280;68679;51.030;7.584;2023-08-20T08:30:32;99559.97;;;20.90;67.77
79250;BME280;68679;51.030;7.584;2023-08-20T08:32:58;99567.44;;;20.97;67.53
79250;BME280;68679;51.030;7.584;2023-08-20T08:35:23;99561.91;;;21.02;66.88
79250;BME280;68679;51.030;7.584;2023-08-20T08:37:49;99574.38;;;21.10;66.95
79250;BME280;68679;51.030;7.584;2023-08-20T08:40:14;99563.53;;;21.15;66.66
79250;BME280;68679;51.030;7.584;2023-08-20T08:42:40;99566.44;;;21.22;66.24
79250;BME280;68679;51.030;7.584;2023-08-20T08:45:07;99572.50;;;21.31;66.21
79250;BME280;68679;51.030;7.584;2023-08-20T08:47:33;99560.97;;;21.39;65.18
79250;BME280;68679;51.030;7.584;2023-08-20T08:49:59;99567.31;;;21.47;65.28
79250;BME280;68679;51.030;7.584;2023-08-20T08:52:25;99570.69;;;21.56;64.84
79250;BME280;68679;51.030;7.584;2023-08-20T08:54:50;99567.91;;;21.65;64.63
79250;BME280;68679;51.030;7.584;2023-08-20T08:57:16;99565.50;;;21.72;64.12
79250;BME280;68679;51.030;7.584;2023-08-20T08:59:42;99553.91;;;21.80;63.77
79250;BME280;68679;51.030;7.584;2023-08-20T09:02:09;99556.16;;;21.90;63.10
79250;BME280;68679;51.030;7.584;2023-08-20T09:04:39;99558.38;;;22.01;62.86
79250;BME280;68679;51.030;7.584;2023-08-20T09:07:04;99558.59;;;22.08;62.59
79250;BME280;68679;51.030;7.584;2023-08-20T09:09:30;99557.41;;;22.17;62.05
79250;BME280;68679;51.030;7.584;2023-08-20T09:11:56;99555.72;;;22.25;62.00
79250;BME280;68679;51.030;7.584;2023-08-20T09:14:22;99553.72;;;22.34;61.23
79250;BME280;68679;51.030;7.584;2023-08-20T09:16:54;99561.59;;;22.43;61.52
79250;BME280;68679;51.030;7.584;2023-08-20T09:19:20;99551.56;;;22.52;60.84
79250;BME280;68679;51.030;7.584;2023-08-20T09:21:48;99555.66;;;22.62;60.71
79250;BME280;68679;51.030;7.584;2023-08-20T09:24:14;99548.63;;;22.69;60.68
79250;BME280;68679;51.030;7.584;2023-08-20T09:26:39;99553.72;;;22.74;60.27
79250;BME280;68679;51.030;7.584;2023-08-20T09:29:10;99556.16;;;22.80;60.10
79250;BME280;68679;51.030;7.584;2023-08-20T09:31:39;99558.59;;;22.85;60.39
79250;BME280;68679;51.030;7.584;2023-08-20T09:34:04;99553.03;;;22.90;60.57
79250;BME280;68679;51.030;7.584;2023-08-20T09:36:32;99556.25;;;22.95;60.27
79250;BME280;68679;51.030;7.584;2023-08-20T09:38:57;99557.16;;;22.99;60.31
79250;BME280;68679;51.030;7.584;2023-08-20T09:41:25;99554.91;;;23.01;60.06
79250;BME280;68679;51.030;7.584;2023-08-20T09:43:58;99553.53;;;23.08;60.58
79250;BME280;68679;51.030;7.584;2023-08-20T09:46:25;99552.06;;;23.10;60.53
79250;BME280;68679;51.030;7.584;2023-08-20T09:48:51;99552.94;;;23.14;60.71
79250;BME280;68679;51.030;7.584;2023-08-20T09:51:19;99553.03;;;23.18;60.54
79250;BME280;68679;51.030;7.584;2023-08-20T09:54:10;99559.72;;;23.24;60.83
79250;BME280;68679;51.030;7.584;2023-08-20T09:56:39;99551.41;;;23.29;60.38
79250;BME280;68679;51.030;7.584;2023-08-20T09:59:04;99548.84;;;23.33;61.10
79250;BME280;68679;51.030;7.584;2023-08-20T10:01:30;99554.72;;;23.38;60.69
79250;BME280;68679;51.030;7.584;2023-08-20T10:03:56;99564.06;;;23.44;60.33
79250;BME280;68679;51.030;7.584;2023-08-20T10:06:23;99565.34;;;23.50;61.01
79250;BME280;68679;51.030;7.584;2023-08-20T10:08:48;99566.66;;;23.57;61.20
79250;BME280;68679;51.030;7.584;2023-08-20T10:11:15;99565.72;;;23.65;60.95
79250;BME280;68679;51.030;7.584;2023-08-20T10:13:41;99569.03;;;23.74;61.52
79250;BME280;68679;51.030;7.584;2023-08-20T10:16:06;99558.84;;;23.79;61.08
79250;BME280;68679;51.030;7.584;2023-08-20T10:18:34;99562.03;;;23.85;61.07
79250;BME280;68679;51.030;7.584;2023-08-20T10:21:01;99567.09;;;23.90;60.99
79250;BME280;68679;51.030;7.584;2023-08-20T10:23:26;99566.06;;;23.95;60.87
79250;BME280;68679;51.030;7.584;2023-08-20T10:25:52;99565.47;;;24.01;61.28
79250;BME280;68679;51.030;7.584;2023-08-20T10:28:22;99565.63;;;24.08;61.39
79250;BME280;68679;51.030;7.584;2023-08-20T10:31:05;99569.53;;;24.11;62.03
79250;BME280;68679;51.030;7.584;2023-08-20T10:33:56;99560.50;;;24.19;61.86
79250;BME280;68679;51.030;7.584;2023-08-20T10:36:23;99563.69;;;24.25;61.03
79250;BME280;68679;51.030;7.584;2023-08-20T10:38:55;99560.50;;;24.35;60.98
79250;BME280;68679;51.030;7.584;2023-08-20T10:41:28;99561.16;;;24.48;61.87
79250;BME280;68679;51.030;7.584;2023-08-20T10:43:58;99566.31;;;24.56;61.19
79250;BME280;68679;51.030;7.584;2023-08-20T10:46:25;99567.44;;;24.55;60.65
79250;BME280;68679;51.030;7.584;2023-08-20T10:48:52;99561.59;;;24.69;60.82
79250;BME280;68679;51.030;7.584;2023-08-20T10:51:19;99565.28;;;24.80;60.90
79250;BME280;68679;51.030;7.584;2023-08-20T10:56:40;99561.13;;;25.02;61.20
79250;BME280;68679;51.030;7.584;2023-08-20T11:01:49;99564.22;;;25.24;60.60
79250;BME280;68679;51.030;7.584;2023-08-20T11:04:19;99565.16;;;25.31;61.12
79250;BME280;68679;51.030;7.584;2023-08-20T11:06:46;99564.53;;;25.41;60.48
79250;BME280;68679;51.030;7.584;2023-08-20T11:09:12;99561.69;;;25.54;60.16
79250;BME280;68679;51.030;7.584;2023-08-20T11:11:39;99561.09;;;25.64;60.56
79250;BME280;68679;51.030;7.584;2023-08-20T11:14:11;99570.91;;;25.76;60.83
79250;BME280;68679;51.030;7.584;2023-08-20T11:16:39;99551.72;;;25.77;59.72
79250;BME280;68679;51.030;7.584;2023-08-20T11:19:04;99558.41;;;25.87;60.05
79250;BME280;68679;51.030;7.584;2023-08-20T11:21:33;99557.03;;;25.97;60.33
79250;BME280;68679;51.030;7.584;2023-08-20T11:24:00;99561.84;;;26.10;59.32
79250;BME280;68679;51.030;7.584;2023-08-20T11:26:26;99569.63;;;26.15;60.21
79250;BME280;68679;51.030;7.584;2023-08-20T11:28:52;99563.59;;;26.26;59.55
79250;BME280;68679;51.030;7.584;2023-08-20T11:31:17;99560.69;;;26.38;59.87
79250;BME280;68679;51.030;7.584;2023-08-20T11:33:42;99557.66;;;26.39;59.24
79250;BME280;68679;51.030;7.584;2023-08-20T11:36:08;99554.31;;;26.46;59.76
79250;BME280;68679;51.030;7.584;2023-08-20T11:38:33;99563.94;;;26.51;59.78
79250;BME280;68679;51.030;7.584;2023-08-20T11:40:58;99559.81;;;26.57;59.60
79250;BME280;68679;51.030;7.584;2023-08-20T11:43:27;99562.94;;;26.62;59.22
79250;BME280;68679;51.030;7.584;2023-08-20T11:45:52;99549.97;;;26.68;59.38
79250;BME280;68679;51.030;7.584;2023-08-20T11:48:20;99550.03;;;26.75;59.00
79250;BME280;68679;51.030;7.584;2023-08-20T11:50:46;99562.91;;;26.89;59.39
79250;BME280;68679;51.030;7.584;2023-08-20T11:53:12;99559.50;;;26.95;59.38
79250;BME280;68679;51.030;7.584;2023-08-20T11:55:38;99553.81;;;27.00;59.12
79250;BME280;68679;51.030;7.584;2023-08-20T11:58:04;99548.53;;;27.08;58.93
79250;BME280;68679;51.030;7.584;2023-08-20T12:00:31;99559.75;;;27.13;59.13
79250;BME280;68679;51.030;7.584;2023-08-20T12:02:57;99559.00;;;27.16;58.70
79250;BME280;68679;51.030;7.584;2023-08-20T12:05:29;99553.22;;;27.14;58.57
79250;BME280;68679;51.030;7.584;2023-08-20T12:07:58;99556.75;;;27.22;58.70
79250;BME280;68679;51.030;7.584;2023-08-20T12:10:25;99548.72;;;27.29;58.36
79250;BME280;68679;51.030;7.584;2023-08-20T12:12:51;99548.38;;;27.34;57.95
79250;BME280;68679;51.030;7.584;2023-08-20T12:15:17;99536.78;;;27.26;57.61
79250;BME280;68679;51.030;7.584;2023-08-20T12:18:15;99544.03;;;27.22;57.18
79250;BME280;68679;51.030;7.584;2023-08-20T12:20:41;99537.19;;;27.29;57.17
79250;BME280;68679;51.030;7.584;2023-08-20T12:23:07;99542.00;;;27.09;56.14
79250;BME280;68679;51.030;7.584;2023-08-20T12:25:33;99540.56;;;27.22;56.66
79250;BME280;68679;51.030;7.584;2023-08-20T12:28:03;99538.06;;;27.40;56.89
79250;BME280;68679;51.030;7.584;2023-08-20T12:30:32;99543.09;;;27.45;56.62
79250;BME280;68679;51.030;7.584;2023-08-20T12:32:57;99538.16;;;27.50;56.80
79250;BME280;68679;51.030;7.584;2023-08-20T12:35:23;99542.06;;;27.57;56.61
79250;BME280;68679;51.030;7.584;2023-08-20T12:37:48;99544.69;;;27.49;56.43
79250;BME280;68679;51.030;7.584;2023-08-20T12:40:13;99530.75;;;27.40;56.22
79250;BME280;68679;51.030;7.584;2023-08-20T12:42:39;99544.00;;;27.60;55.83
79250;BME280;68679;51.030;7.584;2023-08-20T12:45:05;99540.25;;;27.71;55.42
79250;BME280;68679;51.030;7.584;2023-08-20T12:47:31;99544.94;;;27.78;55.16
79250;BME280;68679;51.030;7.584;2023-08-20T12:49:56;99539.97;;;27.84;55.28
79250;BME280;68679;51.030;7.584;2023-08-20T12:52:21;99536.94;;;27.89;55.36
79250;BME280;68679;51.030;7.584;2023-08-20T12:54:47;99537.44;;;28.05;55.37
79250;BME280;68679;51.030;7.584;2023-08-20T12:57:12;99533.63;;;28.13;55.38
79250;BME280;68679;51.030;7.584;2023-08-20T12:59:37;99535.19;;;28.18;55.14
79250;BME280;68679;51.030;7.584;2023-08-20T13:02:02;99531.38;;;28.22;54.94
79250;BME280;68679;51.030;7.584;2023-08-20T13:04:28;99527.13;;;28.25;54.77